Time;durP1;ratioP1;P1;durP2;ratioP2;P2;SDS_P1;SDS_P2;PMS_P1;PMS_P2;Temp;Humidity;BMP_temperature;BMP_pressure;BME280_temperature;BME280_humidity;BME280_pressure;Samples;Min_cycle;Max_cycle;Signal;HPM_P1;HPM_P2
2022/03/01 00:02:16;;;;;;;13.23;10.93;;;;;;;;;;5051074;28;20465;-75
2022/03/01 00:04:43;;;;;;;13.30;11.80;;;;;;;;;;5053211;28;20499;-76
2022/03/01 00:07:10;;;;;;;17.07;10.93;;;;;;;;;;5059552;28;20465;-76
2022/03/01 00:09:37;;;;;;;14.00;11.20;;;;;;;;;;5059669;28;20449;-76
2022/03/01 00:12:05;;;;;;;15.20;11.53;;;;;;;;;;5059364;28;20475;-76
2022/03/01 00:14:32;;;;;;;12.60;10.63;;;;;;;;;;5059299;28;20438;-76
2022/03/01 00:16:59;;;;;;;15.00;11.30;;;;;;;;;;5052095;28;20865;-75
2022/03/01 00:19:27;;;;;;;16.67;11.50;;;;;;;;;;5051520;28;20444;-76
2022/03/01 00:21:54;;;;;;;17.30;12.67;;;;;;;;;;5051018;28;20480;-76
2022/03/01 00:24:21;;;;;;;14.87;11.43;;;;;;;;;;5050918;28;20449;-76
2022/03/01 00:26:49;;;;;;;19.50;12.57;;;;;;;;;;5050749;28;20477;-76
2022/03/01 00:29:16;;;;;;;19.60;12.93;;;;;;;;;;5050807;28;20445;-75
2022/03/01 00:31:43;;;;;;;15.30;12.13;;;;;;;;;;5050881;28;20476;-75
2022/03/01 00:34:10;;;;;;;14.17;11.83;;;;;;;;;;5050849;28;20449;-76
2022/03/01 00:36:38;;;;;;;13.90;12.37;;;;;;;;;;5050869;28;20445;-75
2022/03/01 00:39:06;;;;;;;17.23;13.27;;;;;;;;;;5052945;28;20476;-75
2022/03/01 00:41:33;;;;;;;17.17;11.67;;;;;;;;;;5054592;28;20496;-75
2022/03/01 00:44:00;;;;;;;15.83;12.70;;;;;;;;;;5054364;28;20446;-75
2022/03/01 00:46:27;;;;;;;16.20;12.20;;;;;;;;;;5054892;28;20807;-75
2022/03/01 00:48:54;;;;;;;17.10;12.40;;;;;;;;;;5054773;28;20438;-76
2022/03/01 00:51:21;;;;;;;16.10;13.00;;;;;;;;;;5054424;28;20531;-77
2022/03/01 00:53:49;;;;;;;17.17;12.53;;;;;;;;;;5054474;28;20925;-76
2022/03/01 00:56:17;;;;;;;14.90;11.47;;;;;;;;;;5054586;28;20440;-76
2022/03/01 00:58:44;;;;;;;17.67;12.33;;;;;;;;;;5054640;28;20491;-75
2022/03/01 01:01:11;;;;;;;19.43;12.63;;;;;;;;;;5054363;28;20481;-76
2022/03/01 01:03:38;;;;;;;16.80;12.33;;;;;;;;;;5054106;28;20857;-76
2022/03/01 01:06:05;;;;;;;16.77;12.63;;;;;;;;;;5054527;28;20499;-76
2022/03/01 01:08:32;;;;;;;15.90;11.83;;;;;;;;;;5054502;28;20456;-76
2022/03/01 01:11:01;;;;;;;16.50;12.27;;;;;;;;;;5053745;28;20487;-76
2022/03/01 01:13:28;;;;;;;15.50;11.63;;;;;;;;;;5053692;28;20932;-76
2022/03/01 01:15:55;;;;;;;15.67;12.40;;;;;;;;;;5054143;28;20456;-77
2022/03/01 01:18:22;;;;;;;14.77;11.10;;;;;;;;;;5053714;28;20956;-76
2022/03/01 01:20:49;;;;;;;13.53;11.50;;;;;;;;;;5053847;28;20492;-76
2022/03/01 01:23:16;;;;;;;16.80;12.20;;;;;;;;;;5053892;28;20446;-76
2022/03/01 01:25:43;;;;;;;16.93;13.10;;;;;;;;;;5053608;28;20445;-75
2022/03/01 01:28:12;;;;;;;15.60;11.37;;;;;;;;;;5054141;28;20472;-76
2022/03/01 01:30:39;;;;;;;15.73;12.20;;;;;;;;;;5053922;28;20937;-76
2022/03/01 01:33:06;;;;;;;16.57;12.73;;;;;;;;;;5054296;28;20445;-77
2022/03/01 01:35:34;;;;;;;16.83;11.83;;;;;;;;;;5053844;28;20447;-76
2022/03/01 01:38:01;;;;;;;17.23;11.50;;;;;;;;;;5053244;28;20458;-76
2022/03/01 01:40:28;;;;;;;12.27;10.97;;;;;;;;;;5053899;28;20485;-76
2022/03/01 01:42:56;;;;;;;18.33;12.00;;;;;;;;;;5053841;28;20446;-76
2022/03/01 01:45:25;;;;;;;17.13;12.70;;;;;;;;;;5053897;28;20590;-76
2022/03/01 01:47:53;;;;;;;16.30;11.63;;;;;;;;;;5053679;28;20791;-75
2022/03/01 01:50:20;;;;;;;19.43;12.83;;;;;;;;;;5052780;28;20448;-76
2022/03/01 01:52:49;;;;;;;16.43;10.77;;;;;;;;;;5052540;28;20436;-76
2022/03/01 01:55:16;;;;;;;16.23;11.77;;;;;;;;;;5053056;28;20495;-75
2022/03/01 01:57:43;;;;;;;16.63;13.23;;;;;;;;;;5053368;28;20449;-75
2022/03/01 02:00:12;;;;;;;19.60;12.70;;;;;;;;;;5053285;28;20473;-76
2022/03/01 02:02:40;;;;;;;16.20;11.77;;;;;;;;;;5052862;28;20468;-77
2022/03/01 02:05:08;;;;;;;14.33;11.77;;;;;;;;;;5053719;28;20941;-76
2022/03/01 02:07:35;;;;;;;16.93;12.67;;;;;;;;;;5053378;28;20450;-76
2022/03/01 02:10:02;;;;;;;17.50;12.50;;;;;;;;;;5054253;28;20453;-76
2022/03/01 02:12:29;;;;;;;14.87;11.17;;;;;;;;;;5054857;28;20743;-76
2022/03/01 02:14:56;;;;;;;12.80;11.40;;;;;;;;;;5053692;28;20555;-76
2022/03/01 02:17:24;;;;;;;18.97;13.43;;;;;;;;;;5053146;28;20806;-75
2022/03/01 02:19:53;;;;;;;17.90;14.00;;;;;;;;;;5053063;28;20457;-75
2022/03/01 02:22:22;;;;;;;14.97;11.60;;;;;;;;;;5052476;28;20527;-76
2022/03/01 02:24:49;;;;;;;14.07;11.47;;;;;;;;;;5052918;28;20460;-76
2022/03/01 02:27:16;;;;;;;15.63;12.10;;;;;;;;;;5054423;28;20497;-76
2022/03/01 02:29:43;;;;;;;17.77;12.20;;;;;;;;;;5054337;28;20436;-76
2022/03/01 02:32:11;;;;;;;15.40;12.33;;;;;;;;;;5054005;28;20479;-76
2022/03/01 02:34:38;;;;;;;18.37;12.77;;;;;;;;;;5055573;28;20477;-77
2022/03/01 02:37:05;;;;;;;15.60;10.60;;;;;;;;;;5055422;28;20440;-77
2022/03/01 02:39:34;;;;;;;13.30;11.60;;;;;;;;;;5053207;28;20464;-77
2022/03/01 02:42:01;;;;;;;14.70;12.03;;;;;;;;;;5062950;28;20492;-76
2022/03/01 02:44:28;;;;;;;15.93;12.40;;;;;;;;;;5059782;28;20945;-76
2022/03/01 02:46:55;;;;;;;16.30;11.00;;;;;;;;;;5052694;28;20821;-76
2022/03/01 02:49:22;;;;;;;17.03;11.10;;;;;;;;;;5052621;28;20448;-76
2022/03/01 02:51:49;;;;;;;17.00;11.93;;;;;;;;;;5052291;28;20461;-76
2022/03/01 02:54:16;;;;;;;16.40;12.07;;;;;;;;;;5056135;28;20949;-76
2022/03/01 02:56:45;;;;;;;16.17;12.07;;;;;;;;;;5052396;28;20452;-74
2022/03/01 02:59:12;;;;;;;14.93;12.07;;;;;;;;;;5052535;28;20928;-76
2022/03/01 03:01:39;;;;;;;15.33;11.40;;;;;;;;;;5051057;28;20487;-76
2022/03/01 03:04:06;;;;;;;14.00;11.93;;;;;;;;;;5052055;28;20440;-77
2022/03/01 03:06:33;;;;;;;16.10;12.50;;;;;;;;;;5052057;28;20438;-76
2022/03/01 03:09:00;;;;;;;13.83;11.10;;;;;;;;;;5052118;28;20437;-76
2022/03/01 03:11:27;;;;;;;15.33;11.63;;;;;;;;;;5051647;28;20554;-76
2022/03/01 03:13:55;;;;;;;15.20;11.80;;;;;;;;;;5052245;28;20471;-75
2022/03/01 03:16:22;;;;;;;17.27;11.80;;;;;;;;;;5052028;28;20929;-75
2022/03/01 03:18:49;;;;;;;14.53;12.23;;;;;;;;;;5052292;28;20455;-76
2022/03/01 03:21:16;;;;;;;16.00;11.40;;;;;;;;;;5051787;28;20486;-76
2022/03/01 03:23:43;;;;;;;17.07;12.17;;;;;;;;;;5051323;28;21000;-76
2022/03/01 03:26:10;;;;;;;16.43;12.13;;;;;;;;;;5051816;28;20445;-75
2022/03/01 03:28:38;;;;;;;15.97;11.53;;;;;;;;;;5051513;28;20450;-75
2022/03/01 03:31:06;;;;;;;15.17;11.83;;;;;;;;;;5051999;28;20469;-76
2022/03/01 03:33:33;;;;;;;16.63;12.47;;;;;;;;;;5051587;28;20437;-76
2022/03/01 03:36:00;;;;;;;16.47;12.07;;;;;;;;;;5051314;28;20435;-76
2022/03/01 03:38:28;;;;;;;16.60;11.43;;;;;;;;;;5051475;28;20468;-76
2022/03/01 03:40:55;;;;;;;17.03;12.57;;;;;;;;;;5051177;28;20481;-76
2022/03/01 03:43:22;;;;;;;16.60;13.20;;;;;;;;;;5050961;28;20473;-76
2022/03/01 03:45:50;;;;;;;17.13;12.80;;;;;;;;;;5051594;28;20491;-75
2022/03/01 03:48:18;;;;;;;17.70;13.17;;;;;;;;;;5051955;28;20443;-76
2022/03/01 03:50:45;;;;;;;18.90;12.70;;;;;;;;;;5051484;28;20470;-75
2022/03/01 03:53:13;;;;;;;34.40;23.57;;;;;;;;;;5051572;28;20452;-74
2022/03/01 03:55:40;;;;;;;32.30;21.47;;;;;;;;;;5051614;28;20472;-75
2022/03/01 03:58:07;;;;;;;15.57;12.47;;;;;;;;;;5051732;28;20943;-77
2022/03/01 04:00:34;;;;;;;14.63;12.17;;;;;;;;;;5050922;28;20439;-76
2022/03/01 04:03:01;;;;;;;19.10;12.83;;;;;;;;;;5051017;28;20497;-77
2022/03/01 04:05:29;;;;;;;17.00;12.23;;;;;;;;;;5051318;28;20452;-75
2022/03/01 04:07:56;;;;;;;16.87;12.93;;;;;;;;;;5051449;28;20528;-76
2022/03/01 04:10:23;;;;;;;16.50;12.40;;;;;;;;;;5051019;28;20426;-77
2022/03/01 04:12:50;;;;;;;17.30;11.70;;;;;;;;;;5053331;28;20437;-76
2022/03/01 04:15:18;;;;;;;18.07;13.53;;;;;;;;;;5055388;28;20446;-76
2022/03/01 04:17:45;;;;;;;18.23;12.73;;;;;;;;;;5055171;28;20950;-75
2022/03/01 04:20:12;;;;;;;16.40;12.40;;;;;;;;;;5055297;28;21058;-76
2022/03/01 04:22:41;;;;;;;20.00;13.60;;;;;;;;;;5054451;28;20490;-76
2022/03/01 04:25:09;;;;;;;15.13;11.70;;;;;;;;;;5053687;28;20946;-77
2022/03/01 04:27:36;;;;;;;16.83;12.40;;;;;;;;;;5053551;28;20449;-76
2022/03/01 04:30:03;;;;;;;16.07;12.00;;;;;;;;;;5053713;28;20450;-75
2022/03/01 04:32:30;;;;;;;18.93;12.70;;;;;;;;;;5053192;28;20466;-76
2022/03/01 04:34:57;;;;;;;17.83;13.37;;;;;;;;;;5053155;28;20449;-76
2022/03/01 04:37:24;;;;;;;18.20;12.63;;;;;;;;;;5053241;28;20430;-76
2022/03/01 04:39:52;;;;;;;17.07;13.17;;;;;;;;;;5053448;28;20959;-77
2022/03/01 04:42:19;;;;;;;19.20;13.40;;;;;;;;;;5053009;28;20898;-76
2022/03/01 04:44:46;;;;;;;18.67;12.70;;;;;;;;;;5052973;28;20957;-76
2022/03/01 04:47:14;;;;;;;15.83;12.40;;;;;;;;;;5053130;28;20470;-76
2022/03/01 04:49:41;;;;;;;17.33;12.73;;;;;;;;;;5053073;28;20452;-77
2022/03/01 04:52:08;;;;;;;19.37;13.43;;;;;;;;;;5053201;28;20468;-76
2022/03/01 04:54:35;;;;;;;17.67;13.33;;;;;;;;;;5052986;28;20455;-76
2022/03/01 04:57:04;;;;;;;17.90;13.20;;;;;;;;;;5053075;28;20459;-75
2022/03/01 04:59:31;;;;;;;18.00;12.30;;;;;;;;;;5053294;28;20433;-76
2022/03/01 05:01:58;;;;;;;18.97;13.23;;;;;;;;;;5053106;28;20491;-76
2022/03/01 05:04:25;;;;;;;18.97;12.27;;;;;;;;;;5052600;28;20515;-77
2022/03/01 05:06:53;;;;;;;16.07;11.93;;;;;;;;;;5053465;28;20644;-76
2022/03/01 05:09:21;;;;;;;16.90;12.80;;;;;;;;;;5052925;28;20441;-76
2022/03/01 05:11:48;;;;;;;14.53;11.67;;;;;;;;;;5052964;28;20496;-76
2022/03/01 05:14:17;;;;;;;15.60;11.87;;;;;;;;;;5052140;28;20536;-76
2022/03/01 05:16:45;;;;;;;19.20;12.40;;;;;;;;;;5054428;28;20454;-75
2022/03/01 05:19:12;;;;;;;18.13;12.33;;;;;;;;;;5056670;28;20454;-76
2022/03/01 05:21:39;;;;;;;15.17;12.20;;;;;;;;;;5053945;28;20498;-77
2022/03/01 05:24:06;;;;;;;16.90;13.47;;;;;;;;;;5051643;28;20501;-76
2022/03/01 05:26:33;;;;;;;17.03;12.80;;;;;;;;;;5053233;28;20523;-76
2022/03/01 05:29:00;;;;;;;16.13;12.37;;;;;;;;;;5052771;28;20493;-76
2022/03/01 05:31:29;;;;;;;17.20;12.00;;;;;;;;;;5053319;28;20475;-75
2022/03/01 05:33:56;;;;;;;38.53;24.27;;;;;;;;;;5053272;28;20449;-76
2022/03/01 05:36:23;;;;;;;22.33;14.87;;;;;;;;;;5053080;28;20443;-76
2022/03/01 05:38:50;;;;;;;19.10;13.80;;;;;;;;;;5053882;28;20472;-75
2022/03/01 05:41:19;;;;;;;19.60;13.50;;;;;;;;;;5053559;28;20974;-76
2022/03/01 05:43:46;;;;;;;18.07;12.17;;;;;;;;;;5052276;28;20503;-75
2022/03/01 05:46:13;;;;;;;20.00;13.33;;;;;;;;;;5052273;28;20449;-77
2022/03/01 05:48:41;;;;;;;14.30;12.17;;;;;;;;;;5052634;28;20502;-77
2022/03/01 05:51:08;;;;;;;17.33;12.07;;;;;;;;;;5052241;28;20471;-77
2022/03/01 05:53:35;;;;;;;16.87;12.53;;;;;;;;;;5052404;28;20701;-76
2022/03/01 05:56:02;;;;;;;19.97;13.20;;;;;;;;;;5052383;28;20858;-76
2022/03/01 05:58:29;;;;;;;15.67;11.53;;;;;;;;;;5052252;28;20477;-77
2022/03/01 06:00:56;;;;;;;17.97;12.57;;;;;;;;;;5052198;28;20465;-77
2022/03/01 06:03:23;;;;;;;15.83;12.00;;;;;;;;;;5052004;28;20548;-77
2022/03/01 06:05:52;;;;;;;19.70;11.83;;;;;;;;;;5052104;28;20919;-76
2022/03/01 06:08:19;;;;;;;14.63;11.73;;;;;;;;;;5052974;28;20445;-77
2022/03/01 06:10:46;;;;;;;19.33;12.67;;;;;;;;;;5052362;28;20473;-76
2022/03/01 06:13:13;;;;;;;15.63;11.87;;;;;;;;;;5052545;28;20845;-76
2022/03/01 06:15:40;;;;;;;18.77;12.47;;;;;;;;;;5052698;28;20476;-76
2022/03/01 06:18:07;;;;;;;23.03;16.53;;;;;;;;;;5051789;28;20491;-76
2022/03/01 06:20:34;;;;;;;20.83;14.17;;;;;;;;;;5052577;28;20496;-76
2022/03/01 06:23:02;;;;;;;18.83;12.00;;;;;;;;;;5051694;28;20474;-76
2022/03/01 06:25:29;;;;;;;19.67;13.20;;;;;;;;;;5052213;28;20449;-76
2022/03/01 06:27:57;;;;;;;19.00;13.80;;;;;;;;;;5052457;28;20604;-77
2022/03/01 06:30:24;;;;;;;19.53;13.87;;;;;;;;;;5051755;28;20445;-76
2022/03/01 06:32:52;;;;;;;18.73;13.57;;;;;;;;;;5051800;28;20439;-77
2022/03/01 06:35:19;;;;;;;19.17;13.57;;;;;;;;;;5051862;28;20507;-76
2022/03/01 06:37:46;;;;;;;15.73;12.33;;;;;;;;;;5051388;28;20452;-78
2022/03/01 06:40:14;;;;;;;19.07;12.37;;;;;;;;;;5051307;28;20457;-76
2022/03/01 06:42:42;;;;;;;15.47;12.93;;;;;;;;;;5050275;28;20662;-78
2022/03/01 06:45:09;;;;;;;23.07;15.10;;;;;;;;;;5042939;28;20456;-77
2022/03/01 06:47:36;;;;;;;21.00;13.73;;;;;;;;;;5055680;28;20441;-76
2022/03/01 06:50:03;;;;;;;23.13;14.40;;;;;;;;;;5068861;28;20514;-76
2022/03/01 06:52:32;;;;;;;19.63;14.00;;;;;;;;;;5077556;28;20453;-76
2022/03/01 06:54:59;;;;;;;19.80;13.50;;;;;;;;;;5068847;28;20495;-77
2022/03/01 06:57:27;;;;;;;18.73;12.93;;;;;;;;;;5073023;28;20440;-76
2022/03/01 06:59:54;;;;;;;22.47;13.60;;;;;;;;;;5056699;28;20441;-76
2022/03/01 07:02:21;;;;;;;22.03;15.07;;;;;;;;;;5052400;28;20473;-78
2022/03/01 07:04:48;;;;;;;20.10;14.83;;;;;;;;;;5051661;28;20461;-76
2022/03/01 07:07:16;;;;;;;20.73;13.93;;;;;;;;;;5060272;28;20903;-77
2022/03/01 07:09:43;;;;;;;19.10;13.17;;;;;;;;;;5063412;28;20430;-76
2022/03/01 07:12:10;;;;;;;23.60;13.87;;;;;;;;;;5050189;28;20458;-76
2022/03/01 07:14:38;;;;;;;21.40;14.03;;;;;;;;;;5050011;28;20865;-76
2022/03/01 07:17:06;;;;;;;15.20;13.57;;;;;;;;;;5050560;28;20461;-76
2022/03/01 07:19:33;;;;;;;18.90;13.70;;;;;;;;;;5050716;28;20437;-76
2022/03/01 07:22:00;;;;;;;19.00;14.60;;;;;;;;;;5049885;28;20494;-77
2022/03/01 07:24:27;;;;;;;24.10;14.33;;;;;;;;;;5049653;28;20533;-76
2022/03/01 07:26:54;;;;;;;19.07;13.90;;;;;;;;;;5050096;28;20473;-76
2022/03/01 07:29:22;;;;;;;18.47;14.10;;;;;;;;;;5050019;28;20446;-76
2022/03/01 07:31:50;;;;;;;24.90;15.60;;;;;;;;;;5049963;28;20990;-75
2022/03/01 07:34:17;;;;;;;21.30;15.00;;;;;;;;;;5049899;28;20458;-77
2022/03/01 07:36:44;;;;;;;27.87;18.47;;;;;;;;;;5050364;28;20492;-75
2022/03/01 07:39:11;;;;;;;32.70;15.50;;;;;;;;;;5049756;28;20441;-76
2022/03/01 07:41:38;;;;;;;20.07;14.17;;;;;;;;;;5049717;28;20473;-77
2022/03/01 07:44:06;;;;;;;21.63;15.47;;;;;;;;;;5049980;28;20915;-76
2022/03/01 07:46:33;;;;;;;17.90;14.10;;;;;;;;;;5041444;28;20455;-75
2022/03/01 07:49:01;;;;;;;19.93;13.93;;;;;;;;;;5061326;28;20431;-76
2022/03/01 07:51:28;;;;;;;16.23;12.20;;;;;;;;;;5050941;28;20531;-76
2022/03/01 07:53:55;;;;;;;17.17;13.50;;;;;;;;;;5049675;28;20441;-75
2022/03/01 07:56:22;;;;;;;15.20;12.40;;;;;;;;;;5050041;28;20459;-76
2022/03/01 07:58:50;;;;;;;17.20;12.80;;;;;;;;;;5049766;28;20491;-76
2022/03/01 08:01:17;;;;;;;14.37;12.13;;;;;;;;;;5050082;28;21073;-76
2022/03/01 08:03:45;;;;;;;15.17;12.43;;;;;;;;;;5049240;28;20486;-77
2022/03/01 08:06:13;;;;;;;17.40;13.53;;;;;;;;;;5050459;28;20498;-77
2022/03/01 08:08:40;;;;;;;17.50;11.70;;;;;;;;;;5050411;28;20451;-77
2022/03/01 08:11:07;;;;;;;16.90;12.30;;;;;;;;;;5050157;28;20470;-77
2022/03/01 08:13:34;;;;;;;14.47;11.73;;;;;;;;;;5049667;28;20453;-78
2022/03/01 08:16:02;;;;;;;17.80;12.63;;;;;;;;;;5050070;28;20452;-76
2022/03/01 08:18:29;;;;;;;20.20;13.13;;;;;;;;;;5050848;28;20459;-77
2022/03/01 08:20:57;;;;;;;17.30;12.53;;;;;;;;;;5050512;28;20472;-75
2022/03/01 08:23:26;;;;;;;16.07;13.90;;;;;;;;;;5059533;28;20483;-76
2022/03/01 08:25:53;;;;;;;15.07;12.03;;;;;;;;;;5060331;28;20438;-76
2022/03/01 08:28:20;;;;;;;16.20;12.57;;;;;;;;;;5065783;28;20449;-76
2022/03/01 08:30:47;;;;;;;15.13;13.40;;;;;;;;;;5067294;28;20465;-77
2022/03/01 08:33:16;;;;;;;18.53;12.33;;;;;;;;;;5064993;28;20445;-77
2022/03/01 08:35:43;;;;;;;13.90;11.73;;;;;;;;;;5063709;28;20450;-76
2022/03/01 08:38:10;;;;;;;14.30;12.83;;;;;;;;;;5064763;28;20471;-76
2022/03/01 08:40:39;;;;;;;14.23;12.73;;;;;;;;;;5063764;28;20442;-77
2022/03/01 08:43:07;;;;;;;15.00;11.80;;;;;;;;;;5065880;28;20550;-76
2022/03/01 08:45:34;;;;;;;15.10;11.70;;;;;;;;;;5062317;28;20455;-76
2022/03/01 08:48:01;;;;;;;17.77;13.40;;;;;;;;;;5054724;28;20910;-77
2022/03/01 08:50:28;;;;;;;13.57;11.70;;;;;;;;;;5049946;28;20442;-76
2022/03/01 08:52:55;;;;;;;13.33;12.03;;;;;;;;;;5049683;28;20451;-78
2022/03/01 08:55:22;;;;;;;15.47;12.50;;;;;;;;;;5049615;28;20446;-75
2022/03/01 08:57:51;;;;;;;13.00;11.60;;;;;;;;;;5049307;28;21003;-77
2022/03/01 09:00:18;;;;;;;13.40;12.00;;;;;;;;;;5052629;28;20833;-77
2022/03/01 09:02:45;;;;;;;14.17;11.03;;;;;;;;;;5053028;28;20982;-78
2022/03/01 09:05:12;;;;;;;12.00;10.50;;;;;;;;;;5046331;28;20462;-76
2022/03/01 09:07:40;;;;;;;14.03;11.90;;;;;;;;;;5056707;28;20443;-76
2022/03/01 09:10:07;;;;;;;14.37;11.73;;;;;;;;;;5064428;28;20543;-78
2022/03/01 09:12:34;;;;;;;14.80;12.37;;;;;;;;;;5040039;28;20529;-77
2022/03/01 09:15:03;;;;;;;13.60;11.50;;;;;;;;;;5065973;28;20556;-76
2022/03/01 09:17:30;;;;;;;14.23;11.43;;;;;;;;;;5053037;28;20438;-77
2022/03/01 09:19:58;;;;;;;13.30;12.00;;;;;;;;;;5052563;28;20926;-77
2022/03/01 09:22:25;;;;;;;12.90;11.53;;;;;;;;;;5052440;28;20451;-76
2022/03/01 09:24:52;;;;;;;11.90;10.63;;;;;;;;;;5052447;28;20966;-76
2022/03/01 09:27:19;;;;;;;13.47;12.10;;;;;;;;;;5053011;28;20449;-76
2022/03/01 09:29:46;;;;;;;13.70;11.70;;;;;;;;;;5052588;28;20439;-76
2022/03/01 09:32:15;;;;;;;13.33;11.40;;;;;;;;;;5052453;28;20478;-76
2022/03/01 09:34:42;;;;;;;12.87;11.03;;;;;;;;;;5051888;28;20605;-78
2022/03/01 09:37:09;;;;;;;11.40;10.30;;;;;;;;;;5052850;28;20446;-77
2022/03/01 09:39:36;;;;;;;13.10;11.70;;;;;;;;;;5052199;28;20482;-77
2022/03/01 09:42:03;;;;;;;12.57;11.23;;;;;;;;;;5052734;28;20461;-77
2022/03/01 09:44:30;;;;;;;13.83;11.87;;;;;;;;;;5052798;28;20488;-78
2022/03/01 09:46:58;;;;;;;12.30;11.07;;;;;;;;;;5052977;28;20457;-77
2022/03/01 09:49:26;;;;;;;13.00;11.70;;;;;;;;;;5053142;28;20472;-78
2022/03/01 09:51:53;;;;;;;13.67;12.17;;;;;;;;;;5052769;28;20477;-79
2022/03/01 09:54:23;;;;;;;12.00;10.80;;;;;;;;;;5052372;28;20464;-76
2022/03/01 09:56:50;;;;;;;13.87;11.10;;;;;;;;;;5052679;28;20449;-77
2022/03/01 09:59:17;;;;;;;14.17;12.37;;;;;;;;;;5053025;28;20481;-77
2022/03/01 10:01:48;;;;;;;14.47;10.90;;;;;;;;;;5052818;28;20473;-77
2022/03/01 10:04:15;;;;;;;12.40;11.10;;;;;;;;;;5052400;28;20572;-77
2022/03/01 10:06:45;;;;;;;14.13;10.67;;;;;;;;;;5052199;28;20441;-77
2022/03/01 10:09:13;;;;;;;12.43;11.13;;;;;;;;;;5052294;28;20841;-77
2022/03/01 10:11:40;;;;;;;12.00;10.90;;;;;;;;;;5051978;28;20478;-77
2022/03/01 10:14:08;;;;;;;12.87;10.70;;;;;;;;;;5052126;28;20441;-77
2022/03/01 10:16:38;;;;;;;11.70;10.60;;;;;;;;;;5052305;28;20456;-78
2022/03/01 10:19:05;;;;;;;12.90;9.73;;;;;;;;;;5052088;28;20817;-76
2022/03/01 10:21:32;;;;;;;13.87;10.93;;;;;;;;;;5052883;28;20801;-76
2022/03/01 10:24:00;;;;;;;11.97;10.83;;;;;;;;;;5052128;28;20481;-77
2022/03/01 10:26:28;;;;;;;12.27;9.70;;;;;;;;;;5052156;28;20437;-76
2022/03/01 10:28:57;;;;;;;10.60;9.13;;;;;;;;;;5052193;28;20522;-77
2022/03/01 10:31:25;;;;;;;13.10;10.40;;;;;;;;;;5051861;28;20914;-77
2022/03/01 10:33:57;;;;;;;11.60;10.40;;;;;;;;;;5051612;28;20444;-76
2022/03/01 10:36:25;;;;;;;12.87;10.87;;;;;;;;;;5052479;28;20446;-77
2022/03/01 10:38:55;;;;;;;10.90;9.80;;;;;;;;;;5051649;28;20453;-77
2022/03/01 10:41:26;;;;;;;10.60;9.53;;;;;;;;;;5052055;28;20476;-78
2022/03/01 10:43:53;;;;;;;10.80;9.40;;;;;;;;;;5051964;28;20501;-76
2022/03/01 10:46:21;;;;;;;9.80;8.80;;;;;;;;;;5052556;28;20533;-78
2022/03/01 10:48:48;;;;;;;12.70;11.40;;;;;;;;;;5052336;28;20468;-77
2022/03/01 10:51:19;;;;;;;11.13;9.93;;;;;;;;;;5051690;28;20996;-78
2022/03/01 10:53:46;;;;;;;11.47;10.40;;;;;;;;;;5052826;28;20449;-78
2022/03/01 10:56:14;;;;;;;11.97;9.77;;;;;;;;;;5051746;28;20441;-78
2022/03/01 10:58:43;;;;;;;11.23;10.13;;;;;;;;;;5051289;28;20449;-78
2022/03/01 11:01:11;;;;;;;14.00;10.40;;;;;;;;;;5052014;28;20454;-78
2022/03/01 11:03:38;;;;;;;13.40;8.97;;;;;;;;;;5051775;28;20484;-78
2022/03/01 11:06:06;;;;;;;11.20;9.67;;;;;;;;;;5051766;28;20449;-78
2022/03/01 11:08:34;;;;;;;10.30;9.30;;;;;;;;;;5051317;28;20843;-78
2022/03/01 11:11:02;;;;;;;11.63;10.20;;;;;;;;;;5052116;28;20473;-78
2022/03/01 11:13:29;;;;;;;11.47;9.87;;;;;;;;;;5051992;28;20445;-77
2022/03/01 11:16:08;;;;;;;9.67;8.77;;;;;;;;;;5050782;28;20456;-78
2022/03/01 11:18:41;;;;;;;11.13;10.03;;;;;;;;;;5051846;28;20454;-78
2022/03/01 11:21:09;;;;;;;9.90;8.90;;;;;;;;;;5051784;28;20469;-78
2022/03/01 11:23:36;;;;;;;10.87;9.10;;;;;;;;;;5051015;28;20950;-78
2022/03/01 11:26:10;;;;;;;9.60;8.50;;;;;;;;;;5053755;28;21041;-79
2022/03/01 11:28:40;;;;;;;10.70;9.70;;;;;;;;;;5052309;28;21088;-77
2022/03/01 11:31:20;;;;;;;10.27;9.27;;;;;;;;;;5058582;28;20465;-77
2022/03/01 11:33:54;;;;;;;9.93;9.00;;;;;;;;;;5056492;28;20437;-77
2022/03/01 11:36:22;;;;;;;9.30;8.40;;;;;;;;;;5052131;28;20447;-79
2022/03/01 11:38:49;;;;;;;9.37;8.47;;;;;;;;;;5052300;28;20452;-77
2022/03/01 11:41:20;;;;;;;11.47;8.80;;;;;;;;;;5050868;28;21018;-78
2022/03/01 11:43:53;;;;;;;9.60;8.60;;;;;;;;;;5052769;28;20572;-78
2022/03/01 11:46:22;;;;;;;10.03;9.03;;;;;;;;;;5056557;28;20445;-78
2022/03/01 11:48:52;;;;;;;9.73;8.83;;;;;;;;;;5053825;28;20545;-78
2022/03/01 11:51:19;;;;;;;9.03;8.23;;;;;;;;;;5053247;28;20561;-77
2022/03/01 11:53:49;;;;;;;25.60;20.43;;;;;;;;;;5054553;28;20441;-77
2022/03/01 11:56:18;;;;;;;29.77;22.20;;;;;;;;;;5054067;28;20445;-78
2022/03/01 11:58:48;;;;;;;10.90;9.83;;;;;;;;;;5051482;28;20438;-78
2022/03/01 12:01:15;;;;;;;9.80;8.83;;;;;;;;;;5051756;28;20812;-78
2022/03/01 12:03:44;;;;;;;10.30;9.30;;;;;;;;;;5051568;28;20482;-78
2022/03/01 12:06:11;;;;;;;11.53;10.27;;;;;;;;;;5050954;28;20453;-77
2022/03/01 12:08:38;;;;;;;9.70;8.70;;;;;;;;;;5051026;28;20847;-77
2022/03/01 12:11:08;;;;;;;9.53;8.60;;;;;;;;;;5050347;28;20470;-77
2022/03/01 12:13:35;;;;;;;11.07;10.00;;;;;;;;;;5050312;28;20450;-79
2022/03/01 12:16:03;;;;;;;9.90;8.90;;;;;;;;;;5050949;28;20449;-78
2022/03/01 12:18:31;;;;;;;10.43;9.43;;;;;;;;;;5053492;28;20449;-77
2022/03/01 12:21:03;;;;;;;9.30;8.40;;;;;;;;;;5053463;28;21069;-77
2022/03/01 12:23:31;;;;;;;11.30;9.70;;;;;;;;;;5053352;28;20477;-78
2022/03/01 12:26:00;;;;;;;9.17;8.20;;;;;;;;;;5053385;28;20441;-76
2022/03/01 12:28:27;;;;;;;11.30;9.10;;;;;;;;;;5054049;28;20445;-79
2022/03/01 12:30:58;;;;;;;9.53;8.53;;;;;;;;;;5052805;28;20476;-77
2022/03/01 12:33:25;;;;;;;10.40;9.33;;;;;;;;;;5054655;28;20832;-78
2022/03/01 12:35:58;;;;;;;10.07;9.03;;;;;;;;;;5055080;28;21154;-78
2022/03/01 12:38:26;;;;;;;11.60;8.80;;;;;;;;;;5054630;28;20491;-77
2022/03/01 12:40:53;;;;;;;9.33;8.30;;;;;;;;;;5054001;28;20546;-77
2022/03/01 12:43:21;;;;;;;10.00;8.97;;;;;;;;;;5053860;28;20507;-77
2022/03/01 12:45:48;;;;;;;9.53;8.53;;;;;;;;;;5053903;28;20828;-77
2022/03/01 12:48:16;;;;;;;9.57;8.57;;;;;;;;;;5053962;28;20445;-76
2022/03/01 12:50:47;;;;;;;9.80;8.60;;;;;;;;;;5054334;28;20476;-77
2022/03/01 12:53:15;;;;;;;10.50;8.90;;;;;;;;;;5054012;28;20499;-77
2022/03/01 12:55:43;;;;;;;9.80;8.80;;;;;;;;;;5054137;28;20433;-78
2022/03/01 12:58:17;;;;;;;10.53;9.43;;;;;;;;;;5054079;28;21002;-77
2022/03/01 13:00:45;;;;;;;10.50;9.13;;;;;;;;;;5054769;28;20469;-77
2022/03/01 13:03:12;;;;;;;9.80;8.90;;;;;;;;;;5053455;28;20442;-79
2022/03/01 13:05:39;;;;;;;12.30;11.17;;;;;;;;;;5053724;28;20874;-77
2022/03/01 13:08:16;;;;;;;11.33;10.23;;;;;;;;;;5053850;28;20987;-77
2022/03/01 13:10:44;;;;;;;10.97;9.23;;;;;;;;;;5053705;28;20923;-79
2022/03/01 13:13:12;;;;;;;9.53;8.73;;;;;;;;;;5053568;28;20446;-77
2022/03/01 13:15:39;;;;;;;9.60;8.70;;;;;;;;;;5053504;28;20564;-77
2022/03/01 13:18:07;;;;;;;9.10;8.20;;;;;;;;;;5053276;28;20449;-78
2022/03/01 13:20:34;;;;;;;9.20;8.30;;;;;;;;;;5053189;28;20461;-77
2022/03/01 13:23:02;;;;;;;9.23;8.33;;;;;;;;;;5053282;28;21214;-78
2022/03/01 13:25:30;;;;;;;9.33;8.43;;;;;;;;;;5053200;28;20484;-77
2022/03/01 13:27:58;;;;;;;8.40;7.60;;;;;;;;;;5053198;28;20525;-78
2022/03/01 13:30:26;;;;;;;9.00;8.20;;;;;;;;;;5055214;28;20941;-77
2022/03/01 13:33:03;;;;;;;10.30;9.20;;;;;;;;;;5055055;28;20446;-78
2022/03/01 13:35:30;;;;;;;9.60;8.50;;;;;;;;;;5055733;28;20444;-76
2022/03/01 13:38:00;;;;;;;10.03;9.03;;;;;;;;;;5055275;28;20450;-78
2022/03/01 13:40:27;;;;;;;8.43;7.63;;;;;;;;;;5054067;28;20666;-79
2022/03/01 13:43:04;;;;;;;9.17;8.27;;;;;;;;;;5052740;28;20941;-78
2022/03/01 13:45:33;;;;;;;9.63;8.33;;;;;;;;;;5051922;28;20472;-77
2022/03/01 13:48:09;;;;;;;11.33;8.70;;;;;;;;;;5052941;28;20445;-78
2022/03/01 13:50:36;;;;;;;9.87;8.97;;;;;;;;;;5053241;28;20445;-79
2022/03/01 13:53:09;;;;;;;11.23;8.50;;;;;;;;;;5053118;28;20539;-78
2022/03/01 13:55:37;;;;;;;9.53;8.63;;;;;;;;;;5053244;28;20492;-76
2022/03/01 13:58:04;;;;;;;9.77;8.90;;;;;;;;;;5053123;28;20901;-77
2022/03/01 14:00:36;;;;;;;11.60;8.70;;;;;;;;;;5053469;28;20445;-77
2022/03/01 14:03:04;;;;;;;9.43;8.43;;;;;;;;;;5053600;28;20464;-77
2022/03/01 14:05:31;;;;;;;14.10;9.73;;;;;;;;;;5053226;28;20582;-78
2022/03/01 14:07:59;;;;;;;10.77;8.97;;;;;;;;;;5052396;28;20446;-77
2022/03/01 14:10:26;;;;;;;10.63;9.63;;;;;;;;;;5052684;28;20470;-76
2022/03/01 14:13:01;;;;;;;9.50;8.50;;;;;;;;;;5052025;28;20462;-76
2022/03/01 14:15:32;;;;;;;9.50;8.50;;;;;;;;;;5053203;28;20540;-78
2022/03/01 14:18:01;;;;;;;8.57;7.77;;;;;;;;;;5052722;28;20445;-77
2022/03/01 14:20:29;;;;;;;10.73;9.43;;;;;;;;;;5052568;28;20442;-77
2022/03/01 14:22:56;;;;;;;11.03;9.70;;;;;;;;;;5052138;28;20434;-77
2022/03/01 14:25:23;;;;;;;10.00;9.10;;;;;;;;;;5052245;28;20477;-77